createdAt,value
2023-05-01T00:00:22.387Z,97783.59
2023-05-01T00:02:54.588Z,97789.84
2023-05-01T00:05:22.942Z,97776.81
2023-05-01T00:07:51.128Z,97768.66
2023-05-01T00:10:20.694Z,97779.88
2023-05-01T00:12:48.825Z,97761.09
2023-05-01T00:15:17.367Z,97782.78
2023-05-01T00:17:45.543Z,97763.72
2023-05-01T00:20:14.438Z,97757.88
2023-05-01T00:22:42.606Z,97763.94
2023-05-01T00:25:11.785Z,97766.69
2023-05-01T00:27:41.291Z,97766.91
2023-05-01T00:30:10.233Z,97757.50
2023-05-01T00:32:38.860Z,97758.09
2023-05-01T00:35:07.556Z,97764.50
2023-05-01T00:37:35.778Z,97758.53
2023-05-01T00:40:05.349Z,97762.03
2023-05-01T00:42:36.545Z,97755.28
2023-05-01T00:45:07.051Z,97759.63
2023-05-01T00:47:37.046Z,97752.63
2023-05-01T00:50:06.263Z,97752.00
2023-05-01T00:52:34.494Z,97752.38
2023-05-01T00:55:02.782Z,97755.94
2023-05-01T00:57:31.009Z,97763.81
2023-05-01T00:59:59.350Z,97747.44
2023-05-01T01:02:28.959Z,97752.00
2023-05-01T01:04:57.198Z,97757.97
2023-05-01T01:07:41.228Z,97754.53
2023-05-01T01:10:18.525Z,97765.16
2023-05-01T01:12:54.730Z,97745.41
2023-05-01T01:15:30.484Z,97750.94
2023-05-01T01:18:09.268Z,97742.44
2023-05-01T01:20:48.170Z,97752.13
2023-05-01T01:23:44.172Z,97757.25
2023-05-01T01:26:29.612Z,97752.13
2023-05-01T01:29:32.334Z,97753.88
2023-05-01T01:32:10.643Z,97751.53
2023-05-01T01:34:46.284Z,97746.09
2023-05-01T01:37:20.959Z,97747.22
2023-05-01T01:39:54.755Z,97752.66
2023-05-01T01:42:31.797Z,97747.50
2023-05-01T01:45:05.120Z,97747.00
2023-05-01T01:47:35.718Z,97757.41
2023-05-01T01:50:09.647Z,97751.41
2023-05-01T01:52:40.099Z,97753.13
2023-05-01T01:55:12.779Z,97756.69
2023-05-01T01:57:44.082Z,97749.78
2023-05-01T02:00:16.587Z,97749.66
2023-05-01T02:02:49.262Z,97751.94
2023-05-01T02:05:20.744Z,97752.59
2023-05-01T02:07:51.600Z,97751.94
2023-05-01T02:10:21.564Z,97748.44
2023-05-01T02:12:52.311Z,97753.00
2023-05-01T02:15:21.792Z,97759.06
2023-05-01T02:17:52.459Z,97741.66
2023-05-01T02:20:23.302Z,97753.00
2023-05-01T02:22:53.833Z,97753.09
2023-05-01T02:25:22.352Z,97742.81
2023-05-01T02:27:56.928Z,97741.91
2023-05-01T02:30:25.261Z,97742.66
2023-05-01T02:32:54.102Z,97731.75
2023-05-01T02:35:23.736Z,97728.84
2023-05-01T02:37:52.517Z,97734.31
2023-05-01T02:40:21.356Z,97733.31
2023-05-01T02:42:53.215Z,97734.13
2023-05-01T02:45:26.937Z,97731.84
2023-05-01T02:47:59.889Z,97726.53
2023-05-01T02:50:30.798Z,97718.09
2023-05-01T02:53:00.164Z,97730.06
2023-05-01T02:55:42.863Z,97719.88
2023-05-01T02:58:16.621Z,97729.53
2023-05-01T03:00:45.750Z,97718.16
2023-05-01T03:03:14.204Z,97730.28
2023-05-01T03:05:44.063Z,97733.72
2023-05-01T03:08:12.889Z,97726.72
2023-05-01T03:10:42.741Z,97738.81
2023-05-01T03:13:11.737Z,97730.13
2023-05-01T03:15:40.349Z,97737.16
2023-05-01T03:18:09.668Z,97737.09
2023-05-01T03:20:37.986Z,97740.47
2023-05-01T03:23:07.777Z,97730.88
2023-05-01T03:25:35.894Z,97741.44
2023-05-01T03:28:04.978Z,97732.59
2023-05-01T03:30:35.371Z,97738.72
2023-05-01T03:33:04.422Z,97725.72
2023-05-01T03:35:34.112Z,97734.91
2023-05-01T03:38:02.583Z,97738.25
2023-05-01T03:40:50.721Z,97741.41
2023-05-01T03:43:37.376Z,97746.25
2023-05-01T03:46:11.133Z,97742.44
2023-05-01T03:48:39.321Z,97748.94
2023-05-01T03:51:08.005Z,97728.00
2023-05-01T03:53:37.949Z,97729.72
2023-05-01T03:56:09.524Z,97736.38
2023-05-01T03:58:37.721Z,97733.56
2023-05-01T04:01:06.458Z,97738.69
2023-05-01T04:03:38.401Z,97733.31
2023-05-01T04:06:07.717Z,97733.03
2023-05-01T04:08:36.146Z,97724.28
2023-05-01T04:11:04.328Z,97726.44
2023-05-01T04:13:33.924Z,97740.00
2023-05-01T04:16:03.406Z,97732.88
2023-05-01T04:18:32.188Z,97726.38
2023-05-01T04:21:01.022Z,97721.00
2023-05-01T04:23:29.273Z,97723.44
2023-05-01T04:25:59.995Z,97718.75
2023-05-01T04:28:31.124Z,97722.47
2023-05-01T04:31:00.928Z,97728.31
2023-05-01T04:33:29.417Z,97727.75
2023-05-01T04:35:57.617Z,97734.94
2023-05-01T04:38:26.183Z,97727.69
2023-05-01T04:40:56.723Z,97730.09
2023-05-01T04:43:24.975Z,97736.41
2023-05-01T04:45:53.123Z,97743.91
2023-05-01T04:48:22.636Z,97751.50
2023-05-01T04:50:51.471Z,97751.44
2023-05-01T04:53:19.704Z,97756.28
2023-05-01T04:55:48.239Z,97756.13
2023-05-01T04:58:17.903Z,97752.03
2023-05-01T05:00:49.056Z,97758.63
2023-05-01T05:03:23.719Z,97748.22
2023-05-01T05:05:51.949Z,97764.44
2023-05-01T05:08:20.521Z,97774.59
2023-05-01T05:10:59.377Z,97771.75
2023-05-01T05:13:31.488Z,97765.28
2023-05-01T05:16:03.820Z,97775.53
2023-05-01T05:18:34.366Z,97756.03
2023-05-01T05:21:05.434Z,97778.34
2023-05-01T05:23:34.113Z,97774.63
2023-05-01T05:26:03.029Z,97771.00
2023-05-01T05:28:33.023Z,97784.16
2023-05-01T05:31:01.745Z,97784.88
2023-05-01T05:33:30.553Z,97785.41
2023-05-01T05:36:01.108Z,97791.16
2023-05-01T05:38:35.135Z,97775.69
2023-05-01T05:41:05.043Z,97776.28
2023-05-01T05:43:33.595Z,97780.31
2023-05-01T05:46:02.479Z,97781.34
2023-05-01T05:48:33.576Z,97782.03
2023-05-01T05:51:03.298Z,97780.91
2023-05-01T05:53:31.576Z,97779.72
2023-05-01T05:55:59.997Z,97777.94
2023-05-01T05:58:28.815Z,97776.59
2023-05-01T06:00:57.146Z,97767.75
2023-05-01T06:03:25.550Z,97789.19
2023-05-01T06:05:58.440Z,97777.06
2023-05-01T06:08:28.514Z,97778.25
2023-05-01T06:10:58.996Z,97774.16
2023-05-01T06:13:28.527Z,97779.50
2023-05-01T06:15:57.455Z,97769.13
2023-05-01T06:18:26.265Z,97769.75
2023-05-01T06:20:54.570Z,97765.88
2023-05-01T06:23:22.889Z,97771.06
2023-05-01T06:26:15.608Z,97765.88
2023-05-01T06:28:43.903Z,97764.72
2023-05-01T06:31:12.162Z,97763.41
2023-05-01T06:33:47.403Z,97758.66
2023-05-01T06:36:23.722Z,97757.09
2023-05-01T06:38:51.927Z,97757.69
2023-05-01T06:41:22.185Z,97768.16
2023-05-01T06:43:50.413Z,97744.72
2023-05-01T06:46:18.920Z,97755.59
2023-05-01T06:48:49.001Z,97760.69
2023-05-01T06:51:17.240Z,97766.22
2023-05-01T06:53:46.380Z,97757.38
2023-05-01T06:56:14.720Z,97769.94
2023-05-01T06:58:44.389Z,97766.31
2023-05-01T07:01:12.679Z,97752.63
2023-05-01T07:03:41.294Z,97764.25
2023-05-01T07:06:09.482Z,97762.16
2023-05-01T07:08:37.569Z,97754.31
2023-05-01T07:11:05.889Z,97753.84
2023-05-01T07:13:33.920Z,97764.81
2023-05-01T07:16:03.488Z,97763.03
2023-05-01T07:18:31.636Z,97763.09
2023-05-01T07:20:59.839Z,97767.13
2023-05-01T07:23:27.965Z,97761.53
2023-05-01T07:25:57.057Z,97762.97
2023-05-01T07:28:25.121Z,97764.13
2023-05-01T07:30:53.379Z,97758.00
2023-05-01T07:33:23.604Z,97757.72
2023-05-01T07:35:52.033Z,97756.81
2023-05-01T07:38:20.134Z,97746.94
2023-05-01T07:40:48.451Z,97759.81
2023-05-01T07:43:16.848Z,97747.00
2023-05-01T07:45:56.133Z,97741.75
2023-05-01T07:48:26.121Z,97744.66
2023-05-01T07:50:54.705Z,97741.28
2023-05-01T07:53:23.750Z,97728.56
2023-05-01T07:55:52.235Z,97729.69
2023-05-01T07:58:20.826Z,97736.44
2023-05-01T08:00:49.014Z,97730.16
2023-05-01T08:03:17.239Z,97731.84
2023-05-01T08:05:46.972Z,97733.94
2023-05-01T08:08:20.586Z,97741.03
2023-05-01T08:10:49.107Z,97733.47
2023-05-01T08:13:17.389Z,97738.94
2023-05-01T08:15:47.208Z,97733.34
2023-05-01T08:18:20.524Z,97726.44
2023-05-01T08:20:50.722Z,97729.44
2023-05-01T08:23:18.995Z,97734.28
2023-05-01T08:25:51.092Z,97715.97
2023-05-01T08:28:20.932Z,97722.97
2023-05-01T08:30:50.493Z,97714.16
2023-05-01T08:33:18.917Z,97710.28
2023-05-01T08:35:47.061Z,97709.28
2023-05-01T08:38:16.967Z,97710.94
2023-05-01T08:40:49.959Z,97716.53
2023-05-01T08:43:19.138Z,97707.81
2023-05-01T08:45:49.012Z,97701.28
2023-05-01T08:48:19.608Z,97711.97
2023-05-01T08:50:48.756Z,97708.97
2023-05-01T08:53:20.879Z,97694.00
2023-05-01T08:55:51.829Z,97699.22
2023-05-01T08:58:20.568Z,97706.03
2023-05-01T09:00:49.023Z,97702.44
2023-05-01T09:03:18.855Z,97700.13
2023-05-01T09:05:47.897Z,97704.63
2023-05-01T09:08:16.072Z,97698.38
2023-05-01T09:10:48.870Z,97702.47
2023-05-01T09:13:17.274Z,97707.19
2023-05-01T09:15:45.689Z,97698.94
2023-05-01T09:18:14.094Z,97709.63
2023-05-01T09:20:43.152Z,97708.69
2023-05-01T09:23:11.282Z,97705.91
2023-05-01T09:25:39.598Z,97705.19
2023-05-01T09:28:09.209Z,97703.72
2023-05-01T09:30:38.757Z,97695.94
2023-05-01T09:33:11.195Z,97703.75
2023-05-01T09:35:54.937Z,97704.94
2023-05-01T09:38:24.758Z,97705.78
2023-05-01T09:40:56.672Z,97716.63
2023-05-01T09:43:31.628Z,97712.22
2023-05-01T09:46:09.529Z,97712.78
2023-05-01T09:48:38.835Z,97711.53
2023-05-01T09:51:32.056Z,97699.66
2023-05-01T09:54:01.705Z,97702.34
2023-05-01T09:56:31.586Z,97702.88
2023-05-01T09:59:16.096Z,97689.28
2023-05-01T10:01:46.650Z,97698.66
2023-05-01T10:04:15.710Z,97701.44
2023-05-01T10:06:43.985Z,97683.13
2023-05-01T10:09:17.562Z,97689.31
2023-05-01T10:11:50.054Z,97685.44
2023-05-01T10:14:20.477Z,97678.56
2023-05-01T10:16:49.703Z,97687.22
2023-05-01T10:19:18.862Z,97683.50
2023-05-01T10:21:47.167Z,97672.06
2023-05-01T10:24:17.076Z,97674.16
2023-05-01T10:26:45.935Z,97691.88
2023-05-01T10:29:14.458Z,97674.97
2023-05-01T10:31:44.049Z,97681.06
2023-05-01T10:34:17.915Z,97680.78
2023-05-01T10:36:49.032Z,97683.22
2023-05-01T10:39:33.597Z,97676.00
2023-05-01T10:42:03.821Z,97682.22
2023-05-01T10:44:32.570Z,97686.38
2023-05-01T10:47:22.111Z,97679.75
2023-05-01T10:50:07.238Z,97673.47
2023-05-01T10:53:08.586Z,97665.47
2023-05-01T10:55:37.498Z,97664.16
2023-05-01T10:58:05.751Z,97661.16
2023-05-01T11:00:34.453Z,97653.66
2023-05-01T11:03:37.530Z,97660.97
2023-05-01T11:06:09.387Z,97648.69
2023-05-01T11:08:38.948Z,97642.09
2023-05-01T11:11:44.635Z,97645.97
2023-05-01T11:14:12.764Z,97641.22
2023-05-01T11:16:48.311Z,97640.19
2023-05-01T11:19:49.639Z,97641.03
2023-05-01T11:22:18.419Z,97635.34
2023-05-01T11:24:48.064Z,97627.56
2023-05-01T11:27:17.094Z,97623.13
2023-05-01T11:29:51.037Z,97617.75
2023-05-01T11:32:27.344Z,97616.44
2023-05-01T11:34:57.806Z,97611.41
2023-05-01T11:37:41.332Z,97596.72
2023-05-01T11:40:21.502Z,97595.97
2023-05-01T11:42:50.102Z,97585.03
2023-05-01T11:45:19.932Z,97588.88
2023-05-01T11:47:49.296Z,97594.19
2023-05-01T11:50:18.970Z,97587.75
2023-05-01T11:52:49.731Z,97581.16
2023-05-01T11:55:18.120Z,97582.09
2023-05-01T11:57:50.102Z,97581.84
2023-05-01T12:00:28.434Z,97585.84
2023-05-01T12:02:58.773Z,97582.38
2023-05-01T12:05:29.584Z,97574.38
2023-05-01T12:08:09.920Z,97580.69
2023-05-01T12:10:38.962Z,97574.50
2023-05-01T12:13:08.723Z,97573.38
2023-05-01T12:15:38.351Z,97570.63
2023-05-01T12:18:06.981Z,97571.50
2023-05-01T12:20:41.704Z,97567.53
2023-05-01T12:23:11.775Z,97571.59
2023-05-01T12:25:41.081Z,97569.94
2023-05-01T12:28:11.455Z,97562.66
2023-05-01T12:30:40.363Z,97571.50
2023-05-01T12:33:13.292Z,97572.41
2023-05-01T12:35:45.495Z,97547.91
2023-05-01T12:38:15.414Z,97562.09
2023-05-01T12:40:53.916Z,97562.69
2023-05-01T12:43:23.140Z,97561.47
2023-05-01T12:45:54.905Z,97562.09
2023-05-01T12:48:26.888Z,97553.88
2023-05-01T12:50:58.096Z,97553.81
2023-05-01T12:53:27.715Z,97549.72
2023-05-01T12:55:57.591Z,97558.84
2023-05-01T12:58:36.153Z,97550.47
2023-05-01T13:01:04.617Z,97553.44
2023-05-01T13:03:38.389Z,97536.75
2023-05-01T13:06:10.337Z,97551.13
2023-05-01T13:08:40.173Z,97536.41
2023-05-01T13:11:13.727Z,97531.59
2023-05-01T13:13:42.608Z,97521.53
2023-05-01T13:16:12.932Z,97518.16
2023-05-01T13:18:48.938Z,97522.91
2023-05-01T13:21:22.092Z,97518.16
2023-05-01T13:23:54.915Z,97518.22
2023-05-01T13:26:28.483Z,97519.66
2023-05-01T13:28:58.729Z,97504.00
2023-05-01T13:31:27.623Z,97509.97
2023-05-01T13:33:58.747Z,97502.78
2023-05-01T13:36:33.520Z,97504.47
2023-05-01T13:39:02.166Z,97507.69
2023-05-01T13:41:30.609Z,97497.66
2023-05-01T13:43:58.851Z,97501.38
2023-05-01T13:46:28.573Z,97478.06
2023-05-01T13:48:58.358Z,97490.59
2023-05-01T13:51:29.861Z,97491.69
2023-05-01T13:53:58.341Z,97497.19
2023-05-01T13:56:26.969Z,97487.44
2023-05-01T13:58:55.306Z,97485.00
2023-05-01T14:01:24.053Z,97484.84
2023-05-01T14:03:52.491Z,97480.22
2023-05-01T14:06:22.242Z,97479.84
2023-05-01T14:08:54.501Z,97462.38
2023-05-01T14:11:22.680Z,97469.41
2023-05-01T14:13:52.146Z,97471.31
2023-05-01T14:16:25.107Z,97460.53
2023-05-01T14:18:55.461Z,97465.47
2023-05-01T14:21:25.661Z,97464.69
2023-05-01T14:23:56.750Z,97460.91
2023-05-01T14:26:25.185Z,97445.56
2023-05-01T14:28:54.731Z,97451.41
2023-05-01T14:31:27.353Z,97460.97
2023-05-01T14:33:58.005Z,97458.34
2023-05-01T14:36:26.781Z,97451.66
2023-05-01T14:38:57.883Z,97454.06
2023-05-01T14:41:26.223Z,97443.69
2023-05-01T14:43:54.842Z,97443.88
2023-05-01T14:46:30.832Z,97439.16
2023-05-01T14:48:59.544Z,97444.00
2023-05-01T14:51:28.625Z,97438.13
2023-05-01T14:53:58.305Z,97438.53
2023-05-01T14:56:26.510Z,97440.28
2023-05-01T14:58:54.578Z,97438.03
2023-05-01T15:01:22.877Z,97434.75
2023-05-01T15:03:51.234Z,97439.25
2023-05-01T15:06:19.378Z,97433.34
2023-05-01T15:08:47.568Z,97440.22
2023-05-01T15:11:18.736Z,97432.53
2023-05-01T15:13:48.959Z,97427.19
2023-05-01T15:16:17.681Z,97433.25
2023-05-01T15:18:45.937Z,97425.72
2023-05-01T15:21:14.096Z,97422.69
2023-05-01T15:23:45.273Z,97422.09
2023-05-01T15:26:13.926Z,97423.13
2023-05-01T15:28:43.448Z,97419.69
2023-05-01T15:31:11.654Z,97418.94
2023-05-01T15:33:39.940Z,97421.34
2023-05-01T15:36:08.739Z,97416.47
2023-05-01T15:38:37.104Z,97415.63
2023-05-01T15:41:05.591Z,97409.56
2023-05-01T15:43:33.652Z,97423.72
2023-05-01T15:46:03.707Z,97409.66
2023-05-01T15:48:32.772Z,97413.03
2023-05-01T15:51:00.972Z,97412.28
2023-05-01T15:53:29.156Z,97412.28
2023-05-01T15:55:58.591Z,97401.03
2023-05-01T15:58:26.799Z,97407.19
2023-05-01T16:00:55.830Z,97410.13
2023-05-01T16:03:26.266Z,97416.09
2023-05-01T16:05:56.259Z,97415.13
2023-05-01T16:08:24.562Z,97412.44
2023-05-01T16:10:53.967Z,97412.31
2023-05-01T16:13:22.252Z,97406.28
2023-05-01T16:15:50.386Z,97413.06
2023-05-01T16:18:21.306Z,97400.69
2023-05-01T16:20:53.518Z,97408.72
2023-05-01T16:23:22.237Z,97411.22
2023-05-01T16:25:50.394Z,97410.56
2023-05-01T16:28:18.781Z,97403.09
2023-05-01T16:30:47.231Z,97404.22
2023-05-01T16:33:18.951Z,97410.72
2023-05-01T16:35:48.575Z,97399.19
2023-05-01T16:38:18.567Z,97406.81
2023-05-01T16:40:48.215Z,97399.47
2023-05-01T16:43:16.632Z,97397.25
2023-05-01T16:45:44.730Z,97399.22
2023-05-01T16:48:15.388Z,97399.06
2023-05-01T16:50:43.637Z,97406.28
2023-05-01T16:53:11.772Z,97396.28
2023-05-01T16:55:41.388Z,97396.56
2023-05-01T16:58:09.666Z,97405.75
2023-05-01T17:00:37.728Z,97406.56
2023-05-01T17:03:06.044Z,97398.66
2023-05-01T17:05:34.265Z,97404.06
2023-05-01T17:08:02.428Z,97402.63
2023-05-01T17:10:30.455Z,97397.53
2023-05-01T17:12:59.949Z,97398.13
2023-05-01T17:15:28.174Z,97411.38
2023-05-01T17:17:56.369Z,97409.66
2023-05-01T17:20:24.622Z,97401.66
2023-05-01T17:22:52.902Z,97400.38
2023-05-01T17:25:21.130Z,97399.38
2023-05-01T17:27:49.207Z,97398.41
2023-05-01T17:30:19.518Z,97408.78
2023-05-01T17:32:48.050Z,97401.19
2023-05-01T17:35:16.920Z,97405.66
2023-05-01T17:37:45.337Z,97407.38
2023-05-01T17:40:13.863Z,97406.47
2023-05-01T17:42:42.177Z,97413.06
2023-05-01T17:45:11.153Z,97411.22
2023-05-01T17:47:43.197Z,97418.78
2023-05-01T17:50:13.029Z,97417.19
2023-05-01T17:52:42.293Z,97421.13
2023-05-01T17:55:11.152Z,97422.19
2023-05-01T17:57:40.520Z,97425.38
2023-05-01T18:00:11.554Z,97421.81
2023-05-01T18:02:45.039Z,97418.38
2023-05-01T18:05:14.975Z,97420.59
2023-05-01T18:07:43.194Z,97422.81
2023-05-01T18:10:12.554Z,97411.88
2023-05-01T18:12:42.319Z,97427.63
2023-05-01T18:15:11.671Z,97431.69
2023-05-01T18:17:40.353Z,97427.34
2023-05-01T18:20:11.041Z,97429.09
2023-05-01T18:22:39.882Z,97431.88
2023-05-01T18:25:09.429Z,97441.53
2023-05-01T18:27:38.323Z,97438.63
2023-05-01T18:30:07.812Z,97442.91
2023-05-01T18:32:47.609Z,97441.72
2023-05-01T18:35:19.341Z,97445.59
2023-05-01T18:37:48.766Z,97443.19
2023-05-01T18:40:17.566Z,97443.81
2023-05-01T18:42:49.206Z,97446.59
2023-05-01T18:45:18.679Z,97456.31
2023-05-01T18:47:47.966Z,97453.16
2023-05-01T18:50:23.590Z,97451.25
2023-05-01T18:52:52.854Z,97456.69
2023-05-01T18:55:22.323Z,97447.84
2023-05-01T18:57:51.345Z,97456.81
2023-05-01T19:00:24.113Z,97460.22
2023-05-01T19:02:54.055Z,97449.56
2023-05-01T19:05:25.747Z,97460.81
2023-05-01T19:07:55.714Z,97459.94
2023-05-01T19:10:24.716Z,97466.13
2023-05-01T19:12:54.660Z,97465.56
2023-05-01T19:15:23.712Z,97470.03
2023-05-01T19:17:54.009Z,97477.94
2023-05-01T19:20:27.240Z,97479.47
2023-05-01T19:22:57.245Z,97477.94
2023-05-01T19:25:29.720Z,97469.31
2023-05-01T19:27:59.983Z,97466.91
2023-05-01T19:30:28.463Z,97477.19
2023-05-01T19:32:59.019Z,97474.53
2023-05-01T19:35:29.202Z,97476.44
2023-05-01T19:37:59.119Z,97478.66
2023-05-01T19:40:27.438Z,97467.28
2023-05-01T19:43:01.580Z,97473.81
2023-05-01T19:45:31.718Z,97475.75
2023-05-01T19:48:01.171Z,97468.97
2023-05-01T19:50:33.541Z,97471.50
2023-05-01T19:53:02.722Z,97473.31
2023-05-01T19:55:31.067Z,97479.75
2023-05-01T19:57:59.646Z,97475.38
2023-05-01T20:00:29.313Z,97470.78
2023-05-01T20:02:58.443Z,97470.16
2023-05-01T20:05:28.479Z,97467.13
2023-05-01T20:08:00.146Z,97474.00
2023-05-01T20:10:28.934Z,97478.50
2023-05-01T20:13:01.682Z,97474.50
2023-05-01T20:15:31.430Z,97480.06
2023-05-01T20:18:01.655Z,97459.00
2023-05-01T20:20:30.520Z,97466.03
2023-05-01T20:23:12.556Z,97459.22
2023-05-01T20:25:41.540Z,97460.44
2023-05-01T20:28:15.279Z,97464.66
2023-05-01T20:30:44.881Z,97459.47
2023-05-01T20:33:14.350Z,97468.91
2023-05-01T20:35:42.513Z,97467.59
2023-05-01T20:38:12.152Z,97466.00
2023-05-01T20:40:41.301Z,97461.78
2023-05-01T20:43:09.991Z,97459.94
2023-05-01T20:45:38.638Z,97475.94
2023-05-01T20:48:08.251Z,97472.91
2023-05-01T20:50:36.626Z,97467.22
2023-05-01T20:53:05.060Z,97461.38
2023-05-01T20:55:34.613Z,97472.28
2023-05-01T20:58:02.985Z,97468.16
2023-05-01T21:00:31.298Z,97470.72
2023-05-01T21:03:00.007Z,97458.81
2023-05-01T21:05:28.862Z,97468.16
2023-05-01T21:07:59.135Z,97468.41
2023-05-01T21:10:27.273Z,97466.44
2023-05-01T21:12:57.923Z,97469.38
2023-05-01T21:15:27.059Z,97469.59
2023-05-01T21:17:55.251Z,97474.69
2023-05-01T21:20:31.941Z,97468.03
2023-05-01T21:23:01.351Z,97470.19
2023-05-01T21:25:31.918Z,97477.84
2023-05-01T21:28:03.609Z,97478.31
2023-05-01T21:30:33.700Z,97475.50
2023-05-01T21:33:03.381Z,97475.03
2023-05-01T21:35:31.972Z,97468.34
2023-05-01T21:38:00.466Z,97477.09
2023-05-01T21:40:28.629Z,97472.34
2023-05-01T21:42:57.495Z,97480.94
2023-05-01T21:45:27.988Z,97480.09
2023-05-01T21:47:56.131Z,97478.38
2023-05-01T21:50:24.891Z,97485.50
2023-05-01T21:52:53.046Z,97478.00
2023-05-01T21:55:22.658Z,97470.69
2023-05-01T21:57:51.080Z,97472.50
2023-05-01T22:00:21.244Z,97473.59
2023-05-01T22:02:52.134Z,97471.69
2023-05-01T22:05:23.208Z,97476.16
2023-05-01T22:07:52.573Z,97493.19
2023-05-01T22:10:21.120Z,97489.19
2023-05-01T22:12:50.340Z,97492.94
2023-05-01T22:15:18.529Z,97488.81
2023-05-01T22:17:47.044Z,97485.88
2023-05-01T22:20:16.751Z,97492.44
2023-05-01T22:22:44.761Z,97487.31
2023-05-01T22:25:13.307Z,97492.66
2023-05-01T22:27:41.927Z,97480.97
2023-05-01T22:30:11.250Z,97490.06
2023-05-01T22:32:39.526Z,97487.38
2023-05-01T22:35:09.030Z,97493.84
2023-05-01T22:37:38.577Z,97490.06
2023-05-01T22:40:08.398Z,97482.75
2023-05-01T22:42:36.642Z,97484.47
2023-05-01T22:45:05.238Z,97495.09
2023-05-01T22:47:33.410Z,97497.13
2023-05-01T22:50:01.922Z,97491.69
2023-05-01T22:52:30.290Z,97489.16
2023-05-01T22:54:59.744Z,97490.22
2023-05-01T22:57:27.817Z,97485.88
2023-05-01T22:59:56.067Z,97480.88
2023-05-01T23:02:24.360Z,97474.94
2023-05-01T23:04:52.516Z,97466.66
2023-05-01T23:07:20.791Z,97478.75
2023-05-01T23:09:48.937Z,97477.06
2023-05-01T23:12:22.721Z,97484.09
2023-05-01T23:14:50.811Z,97486.03
2023-05-01T23:17:18.845Z,97487.00
2023-05-01T23:19:47.300Z,97476.44
2023-05-01T23:22:15.528Z,97473.91
2023-05-01T23:24:47.663Z,97469.97
2023-05-01T23:27:16.870Z,97479.41
2023-05-01T23:29:55.300Z,97470.31
2023-05-01T23:32:27.983Z,97480.31
2023-05-01T23:34:57.626Z,97473.53
2023-05-01T23:37:25.705Z,97478.00
2023-05-01T23:39:54.372Z,97470.56
2023-05-01T23:42:23.393Z,97481.19
2023-05-01T23:44:53.033Z,97477.91
2023-05-01T23:47:21.698Z,97466.31
2023-05-01T23:49:50.357Z,97472.81
2023-05-01T23:52:18.422Z,97461.53
2023-05-01T23:54:46.517Z,97472.81
2023-05-01T23:57:14.577Z,97465.03
2023-05-01T23:59:42.718Z,97457.94
